Time;durP1;ratioP1;P1;durP2;ratioP2;P2;SDS_P1;SDS_P2;PMS_P1;PMS_P2;Temp;Humidity;BMP_temperature;BMP_pressure;BME280_temperature;BME280_humidity;BME280_pressure;Samples;Min_cycle;Max_cycle;Signal;HPM_P1;HPM_P2
2022/01/02 00:01:59;;;;;;;34.98;19.75;;;;;;;8.22;83.97;97929.59;1726004;81;27384;-85
2022/01/02 00:04:29;;;;;;;32.53;18.57;;;;;;;8.22;83.85;97939.00;1728684;81;25802;-85
2022/01/02 00:07:00;;;;;;;65.92;27.58;;;;;;;8.20;83.72;97936.20;1731226;81;26133;-82
2022/01/02 00:09:34;;;;;;;58.20;26.60;;;;;;;8.19;83.71;97942.08;1738458;81;26345;-83
2022/01/02 00:12:06;;;;;;;50.50;24.52;;;;;;;8.21;83.74;97937.33;1743031;81;25725;-84
2022/01/02 00:14:38;;;;;;;52.45;22.98;;;;;;;8.20;83.67;97941.06;1738881;81;34676;-88
2022/01/02 00:17:07;;;;;;;48.25;24.05;;;;;;;8.10;83.52;97941.81;1721043;82;25928;-84
2022/01/02 00:19:37;;;;;;;57.73;25.70;;;;;;;8.07;83.64;97942.20;1742607;81;25689;-83
2022/01/02 00:22:12;;;;;;;44.83;22.82;;;;;;;8.07;83.74;97936.83;1749308;81;26004;-86
2022/01/02 00:24:32;;;;;;;47.48;23.07;;;;;;;8.10;83.78;97942.31;1732854;82;25706;-84
2022/01/02 00:27:00;;;;;;;39.27;19.75;;;;;;;8.11;83.79;97938.11;1740912;81;27408;-83
2022/01/02 00:29:26;;;;;;;31.42;20.00;;;;;;;8.08;83.71;97938.50;1740275;81;25773;-84
2022/01/02 00:31:54;;;;;;;33.18;19.40;;;;;;;8.00;83.68;97933.17;1740344;82;25822;-88
2022/01/02 00:34:22;;;;;;;31.87;18.55;;;;;;;8.01;83.92;97932.67;1740406;81;25967;-83
2022/01/02 00:36:49;;;;;;;33.58;19.02;;;;;;;8.05;84.00;97928.61;1739455;82;25802;-83
2022/01/02 00:39:17;;;;;;;32.48;19.30;;;;;;;8.04;83.88;97931.80;1739308;81;27404;-83
2022/01/02 00:41:55;;;;;;;30.32;18.35;;;;;;;8.01;83.88;97926.78;1743601;81;25717;-85
2022/01/02 00:44:33;;;;;;;31.05;17.48;;;;;;;8.04;83.87;97933.66;1750369;81;25852;-83
2022/01/02 00:47:20;;;;;;;29.60;17.57;;;;;;;8.04;83.80;97929.62;1731713;81;26038;-85
2022/01/02 00:49:55;;;;;;;26.37;16.52;;;;;;;7.99;83.75;97924.78;1733687;81;25823;-82
2022/01/02 00:52:22;;;;;;;21.73;15.50;;;;;;;7.98;83.87;97919.58;1739410;82;28202;-83
2022/01/02 00:54:49;;;;;;;24.92;16.55;;;;;;;8.03;84.06;97918.03;1739912;82;25747;-83
2022/01/02 00:57:18;;;;;;;25.43;16.75;;;;;;;8.05;84.06;97915.16;1742219;81;26749;-82
2022/01/02 01:00:11;;;;;;;25.85;16.32;;;;;;;8.07;84.07;97919.34;1739797;80;25978;-83
2022/01/02 01:02:48;;;;;;;23.42;16.00;;;;;;;8.07;84.01;97926.06;1738307;81;25732;-83
2022/01/02 01:05:33;;;;;;;31.00;20.95;;;;;;;8.07;84.06;97923.38;1725862;81;27359;-82
2022/01/02 01:08:04;;;;;;;38.90;21.27;;;;;;;8.07;84.13;97922.03;1743675;81;25747;-85
2022/01/02 01:10:35;;;;;;;34.38;19.98;;;;;;;8.10;84.22;97921.64;1750934;81;25789;-87
2022/01/02 01:13:05;;;;;;;30.10;17.30;;;;;;;8.13;84.16;97914.56;1742944;81;26777;-84
2022/01/02 01:15:34;;;;;;;28.15;17.12;;;;;;;8.14;84.10;97914.89;1735043;81;25657;-87
2022/01/02 01:18:03;;;;;;;33.45;19.02;;;;;;;8.12;83.92;97912.05;1740591;81;28227;-86
2022/01/02 01:20:38;;;;;;;29.07;16.02;;;;;;;8.12;83.92;97908.86;1749563;81;25887;-83
2022/01/02 01:23:05;;;;;;;28.02;16.67;;;;;;;8.13;84.00;97909.19;1725752;81;25829;-82
2022/01/02 01:25:33;;;;;;;22.65;15.13;;;;;;;8.15;83.95;97897.74;1744820;81;26763;-86
2022/01/02 01:28:01;;;;;;;32.23;15.93;;;;;;;8.15;83.82;97907.16;1739694;82;25802;-84
2022/01/02 01:30:28;;;;;;;25.02;14.55;;;;;;;8.13;83.73;97902.46;1734213;80;27504;-83
2022/01/02 01:32:55;;;;;;;22.93;15.25;;;;;;;8.14;83.80;97904.13;1740031;81;25884;-83
2022/01/02 01:35:23;;;;;;;23.05;14.83;;;;;;;8.16;83.87;97895.38;1723771;81;25761;-82
2022/01/02 01:37:50;;;;;;;21.40;14.47;;;;;;;8.18;83.94;97893.34;1747920;81;26078;-82
2022/01/02 01:40:18;;;;;;;20.72;14.98;;;;;;;8.21;83.96;97889.46;1739563;81;25722;-83
2022/01/02 01:43:12;;;;;;;23.02;15.32;;;;;;;8.23;83.95;97882.85;1750544;80;27377;-86
2022/01/02 01:48:00;;;;;;;24.77;15.65;;;;;;;8.22;83.81;97883.03;1745630;81;25817;-87
2022/01/02 01:50:37;;;;;;;23.83;15.13;;;;;;;8.21;83.73;97880.85;1738941;81;26826;-85
2022/01/02 01:53:06;;;;;;;24.85;15.68;;;;;;;8.23;83.80;97873.95;1737252;81;25804;-83
2022/01/02 01:55:34;;;;;;;23.85;15.88;;;;;;;8.23;83.77;97880.67;1724744;80;28603;-83
2022/01/02 01:58:03;;;;;;;29.30;17.15;;;;;;;8.24;83.79;97881.84;1739437;81;25778;-86
2022/01/02 02:00:33;;;;;;;26.50;16.20;;;;;;;8.24;83.79;97883.18;1719843;81;26252;-84
2022/01/02 02:03:01;;;;;;;22.25;14.45;;;;;;;8.19;83.73;97873.51;1694265;84;26023;-83
2022/01/02 02:05:27;;;;;;;29.60;18.02;;;;;;;8.13;83.69;97876.08;1704657;84;25758;-87
2022/01/02 02:07:54;;;;;;;43.40;23.85;;;;;;;8.04;83.73;97871.31;1697227;84;27367;-83
2022/01/02 02:10:26;;;;;;;48.10;24.65;;;;;;;8.03;83.97;97864.26;1701223;84;26535;-84
2022/01/02 02:12:56;;;;;;;45.55;24.85;;;;;;;8.06;84.10;97865.75;1704517;83;25892;-86
2022/01/02 02:15:23;;;;;;;44.48;23.12;;;;;;;8.07;84.14;97854.81;1704430;84;26136;-83
2022/01/02 02:17:51;;;;;;;40.52;22.45;;;;;;;8.07;84.07;97852.13;1703795;84;25754;-83
2022/01/02 02:20:31;;;;;;;44.20;25.00;;;;;;;8.06;84.07;97857.18;1703893;83;27422;-83
2022/01/02 02:23:00;;;;;;;50.25;28.10;;;;;;;8.04;84.11;97855.17;1693992;84;25879;-83
2022/01/02 02:25:34;;;;;;;57.25;28.55;;;;;;;8.04;84.16;97851.66;1704567;83;25785;-82
2022/01/02 02:28:08;;;;;;;60.17;28.98;;;;;;;8.07;84.23;97852.63;1705134;83;25974;-86
2022/01/02 02:30:38;;;;;;;51.90;27.82;;;;;;;8.09;84.24;97854.09;1716325;83;25659;-84
2022/01/02 02:33:07;;;;;;;56.73;28.80;;;;;;;8.13;84.14;97860.78;1742295;81;28830;-82
2022/01/02 02:35:37;;;;;;;56.77;27.85;;;;;;;8.12;84.03;97857.77;1748551;81;26186;-82
2022/01/02 02:38:09;;;;;;;59.95;29.77;;;;;;;8.09;83.88;97855.98;1742249;81;25724;-82
2022/01/02 02:40:37;;;;;;;42.95;22.75;;;;;;;8.05;83.81;97850.64;1683156;83;26042;-83
2022/01/02 02:43:23;;;;;;;35.10;20.32;;;;;;;8.01;83.89;97851.50;1739622;81;25763;-83
2022/01/02 02:51:12;;;;;;;25.65;15.15;;;;;;;7.95;83.92;97830.24;1720378;83;25731;-84
2022/01/02 02:53:43;;;;;;;26.52;14.45;;;;;;;7.95;84.03;97841.50;1750093;81;26242;-85
2022/01/02 02:56:19;;;;;;;32.85;14.73;;;;;;;7.94;84.08;97835.80;1705196;83;25805;-83
2022/01/02 02:58:44;;;;;;;29.55;13.98;;;;;;;7.95;84.08;97836.13;1746699;81;28055;-83
2022/01/02 03:01:15;;;;;;;23.90;13.28;;;;;;;7.95;84.14;97830.75;1744327;80;25964;-85
2022/01/02 03:03:43;;;;;;;29.35;14.70;;;;;;;7.97;84.13;97829.23;1740061;82;25787;-86
2022/01/02 03:06:13;;;;;;;22.48;12.90;;;;;;;7.96;84.05;97831.08;1737661;81;26374;-82
2022/01/02 03:08:41;;;;;;;21.82;11.60;;;;;;;7.94;83.99;97828.57;1741317;81;25287;-86
2022/01/02 03:11:13;;;;;;;24.12;11.83;;;;;;;7.89;83.96;97818.88;1737735;81;27431;-83
2022/01/02 03:13:38;;;;;;;20.62;12.15;;;;;;;7.88;84.09;97803.76;1733767;81;25824;-87
2022/01/02 03:16:04;;;;;;;22.60;11.93;;;;;;;7.90;84.13;97801.72;1734394;81;26024;-84
2022/01/02 03:18:31;;;;;;;20.48;11.63;;;;;;;7.93;84.12;97807.25;1734201;81;26760;-84
2022/01/02 03:20:59;;;;;;;18.80;11.08;;;;;;;7.94;84.11;97800.86;1733565;81;25311;-86
2022/01/02 03:23:25;;;;;;;25.97;12.85;;;;;;;7.94;84.07;97808.41;1736081;81;27375;-87
2022/01/02 03:25:52;;;;;;;13.95;8.35;;;;;;;7.95;84.03;97806.56;1741039;81;25836;-83
2022/01/02 03:28:19;;;;;;;8.60;6.03;;;;;;;7.95;84.04;97805.22;1737083;81;25879;-86
2022/01/02 03:30:45;;;;;;;11.43;7.50;;;;;;;7.95;84.08;97809.25;1736463;81;26075;-83
2022/01/02 03:33:12;;;;;;;9.10;6.42;;;;;;;7.97;84.12;97804.49;1747078;81;25828;-83
2022/01/02 03:35:39;;;;;;;9.73;6.25;;;;;;;7.97;84.11;97799.11;1745340;81;27523;-83
2022/01/02 03:38:08;;;;;;;10.00;6.03;;;;;;;7.99;84.14;97791.70;1734195;81;25709;-87
2022/01/02 03:40:35;;;;;;;10.10;6.33;;;;;;;8.03;84.22;97788.98;1741521;81;25805;-84
2022/01/02 03:43:03;;;;;;;7.78;5.85;;;;;;;8.05;84.14;97788.80;1737102;81;26757;-84
2022/01/02 03:45:30;;;;;;;8.18;5.65;;;;;;;8.02;84.08;97779.24;1738735;81;25374;-85
2022/01/02 03:47:57;;;;;;;7.90;5.50;;;;;;;7.98;84.01;97765.84;1742832;81;27360;-83
2022/01/02 03:50:24;;;;;;;12.33;5.97;;;;;;;7.96;84.06;97766.56;1725615;81;25913;-83
2022/01/02 03:52:51;;;;;;;9.55;5.70;;;;;;;7.94;84.06;97769.44;1746334;81;25297;-85
2022/01/02 03:55:17;;;;;;;8.73;5.85;;;;;;;7.95;84.08;97763.55;1750057;81;26709;-86
2022/01/02 03:57:44;;;;;;;11.03;6.53;;;;;;;7.99;84.08;97763.98;1733418;81;26226;-83
2022/01/02 04:00:14;;;;;;;9.08;6.08;;;;;;;7.95;83.89;97762.20;1734923;81;27350;-85
2022/01/02 04:02:42;;;;;;;10.53;6.47;;;;;;;7.91;83.83;97758.21;1743768;81;25832;-84
2022/01/02 04:05:10;;;;;;;12.18;7.53;;;;;;;7.86;83.76;97765.98;1746759;81;25769;-83
2022/01/02 04:07:37;;;;;;;11.35;6.62;;;;;;;7.85;83.86;97754.91;1743714;81;25983;-84
2022/01/02 04:10:08;;;;;;;12.10;7.37;;;;;;;7.83;83.83;97751.09;1747260;81;25813;-83
2022/01/02 04:12:35;;;;;;;8.70;5.60;;;;;;;7.72;83.78;97748.03;1723578;81;27353;-85
2022/01/02 04:15:06;;;;;;;7.55;5.60;;;;;;;7.68;83.92;97742.69;1735087;81;25821;-84
2022/01/02 04:17:33;;;;;;;7.42;5.53;;;;;;;7.64;83.97;97738.69;1739868;81;25943;-86
2022/01/02 04:20:02;;;;;;;11.12;7.15;;;;;;;7.63;84.00;97738.37;1737712;81;26607;-86
2022/01/02 04:22:29;;;;;;;18.48;9.18;;;;;;;7.61;84.06;97739.09;1737336;81;25812;-85
2022/01/02 04:24:55;;;;;;;22.48;11.55;;;;;;;7.64;84.09;97750.78;1742698;81;26799;-84
2022/01/02 04:27:23;;;;;;;18.07;10.18;;;;;;;7.64;84.13;97743.56;1734154;81;25712;-84
2022/01/02 04:29:51;;;;;;;15.65;9.38;;;;;;;7.65;84.05;97749.77;1733253;82;25905;-82
2022/01/02 04:32:19;;;;;;;13.72;7.67;;;;;;;7.65;84.00;97757.83;1742912;81;26618;-84
2022/01/02 04:34:46;;;;;;;15.32;10.18;;;;;;;7.57;83.90;97749.36;1745852;81;25719;-84
2022/01/02 04:37:12;;;;;;;16.30;9.98;;;;;;;7.54;83.99;97746.52;1744198;81;27391;-82
2022/01/02 04:39:40;;;;;;;16.75;9.80;;;;;;;7.56;84.07;97737.77;1729452;81;25782;-86
2022/01/02 04:42:08;;;;;;;16.87;9.95;;;;;;;7.57;84.02;97736.77;1751019;81;25771;-82
2022/01/02 04:44:35;;;;;;;17.10;9.40;;;;;;;7.52;83.91;97743.18;1737909;81;26033;-83
2022/01/02 04:47:01;;;;;;;16.82;9.08;;;;;;;7.50;83.87;97742.52;1745331;81;25721;-83
2022/01/02 04:49:28;;;;;;;15.05;9.20;;;;;;;7.49;83.91;97747.57;1736232;81;26785;-82
2022/01/02 04:51:55;;;;;;;15.72;9.50;;;;;;;7.52;84.01;97753.92;1734440;81;25697;-86
2022/01/02 04:54:22;;;;;;;19.05;9.43;;;;;;;7.53;83.94;97747.54;1736965;81;25746;-82
2022/01/02 04:56:49;;;;;;;26.10;11.78;;;;;;;7.47;83.91;97737.55;1741275;81;26079;-83
2022/01/02 04:59:16;;;;;;;26.55;12.45;;;;;;;7.47;84.03;97745.60;1744238;80;25789;-83
2022/01/02 05:01:43;;;;;;;26.00;12.47;;;;;;;7.47;84.14;97740.23;1729747;80;27298;-83
2022/01/02 05:04:09;;;;;;;23.02;12.58;;;;;;;7.48;84.15;97739.22;1741854;81;26195;-83
2022/01/02 05:06:36;;;;;;;27.90;13.93;;;;;;;7.51;84.14;97740.67;1744975;81;25737;-84
2022/01/02 05:09:03;;;;;;;21.40;12.65;;;;;;;7.49;84.04;97738.17;1745442;81;26611;-83
2022/01/02 05:11:30;;;;;;;29.75;14.50;;;;;;;7.47;83.98;97733.52;1745135;81;25772;-83
2022/01/02 05:13:57;;;;;;;37.55;16.40;;;;;;;7.44;84.02;97727.16;1736800;81;27349;-84
2022/01/02 05:16:24;;;;;;;26.20;15.18;;;;;;;7.47;84.06;97720.08;1738610;81;25797;-86
2022/01/02 05:18:50;;;;;;;27.95;14.65;;;;;;;7.48;83.96;97711.02;1740206;81;25806;-86
2022/01/02 05:21:17;;;;;;;19.32;11.08;;;;;;;7.47;83.83;97715.22;1748626;81;26469;-83
2022/01/02 05:23:43;;;;;;;23.22;12.53;;;;;;;7.48;83.80;97720.41;1733810;81;25689;-84
2022/01/02 05:26:10;;;;;;;21.95;12.28;;;;;;;7.42;83.61;97723.81;1732487;81;28202;-85
2022/01/02 05:28:37;;;;;;;22.87;11.20;;;;;;;7.42;83.61;97722.47;1732947;81;25683;-85
2022/01/02 05:31:03;;;;;;;23.98;12.85;;;;;;;7.39;83.50;97718.80;1747135;81;25817;-82
2022/01/02 05:33:30;;;;;;;19.12;11.33;;;;;;;7.37;83.46;97713.28;1736745;81;25957;-82
2022/01/02 05:35:56;;;;;;;20.12;12.63;;;;;;;7.35;83.46;97710.81;1737009;81;26428;-85
2022/01/02 05:38:23;;;;;;;22.15;13.88;;;;;;;7.27;83.34;97704.66;1739759;81;27358;-86
2022/01/02 05:40:52;;;;;;;22.37;13.50;;;;;;;7.22;83.46;97706.58;1743351;81;25812;-88
2022/01/02 05:43:18;;;;;;;21.80;13.10;;;;;;;7.18;83.57;97694.53;1739894;80;25739;-86
2022/01/02 05:45:45;;;;;;;17.23;10.70;;;;;;;7.19;83.60;97686.80;1733696;80;25966;-87
2022/01/02 05:48:11;;;;;;;17.62;10.80;;;;;;;7.19;83.49;97682.77;1739433;82;25695;-82
2022/01/02 05:50:38;;;;;;;21.25;12.03;;;;;;;7.12;83.13;97671.11;1744986;81;27606;-84
2022/01/02 05:53:04;;;;;;;18.20;11.20;;;;;;;7.06;83.12;97665.12;1739775;81;25863;-83
2022/01/02 05:55:31;;;;;;;15.35;9.25;;;;;;;7.02;82.98;97665.14;1748645;81;25803;-82
2022/01/02 05:57:57;;;;;;;14.28;7.85;;;;;;;6.93;82.85;97656.86;1736219;81;27154;-83
2022/01/02 06:00:24;;;;;;;12.50;7.22;;;;;;;6.78;82.63;97655.47;1732895;81;25785;-82
2022/01/02 06:02:51;;;;;;;11.73;7.33;;;;;;;6.68;82.70;97660.27;1730361;81;27511;-86
2022/01/02 06:05:18;;;;;;;13.90;7.40;;;;;;;6.63;82.86;97649.26;1722873;81;25753;-85
2022/01/02 06:07:44;;;;;;;10.32;6.83;;;;;;;6.59;82.86;97651.45;1742005;81;25824;-82
2022/01/02 06:10:11;;;;;;;11.08;7.60;;;;;;;6.48;82.83;97647.86;1740962;81;26754;-88
2022/01/02 06:12:38;;;;;;;10.30;6.40;;;;;;;6.45;82.99;97642.84;1744373;80;25781;-86
2022/01/02 06:15:06;;;;;;;12.07;7.47;;;;;;;6.43;82.94;97646.21;1731601;81;27377;-83
2022/01/02 06:17:33;;;;;;;8.85;6.92;;;;;;;6.42;83.02;97645.88;1749084;81;25865;-82
2022/01/02 06:20:00;;;;;;;11.68;8.23;;;;;;;6.37;82.76;97644.27;1743859;81;25801;-83
2022/01/02 06:22:26;;;;;;;8.88;7.08;;;;;;;6.28;82.71;97639.45;1742599;81;26396;-83
2022/01/02 06:24:53;;;;;;;12.03;8.28;;;;;;;6.24;82.70;97635.98;1743868;81;25343;-82
2022/01/02 06:27:20;;;;;;;13.32;7.45;;;;;;;6.22;82.78;97638.00;1736130;81;28203;-82
2022/01/02 06:29:47;;;;;;;9.50;7.53;;;;;;;6.16;82.57;97626.67;1749624;81;25769;-88
2022/01/02 06:32:14;;;;;;;11.50;9.13;;;;;;;6.08;82.53;97627.03;1748630;81;26028;-88
2022/01/02 06:34:41;;;;;;;13.45;9.40;;;;;;;6.09;82.80;97620.66;1750876;80;25915;-83
2022/01/02 06:37:07;;;;;;;13.78;9.78;;;;;;;6.12;82.99;97620.31;1751944;80;25797;-87
2022/01/02 06:39:34;;;;;;;16.48;10.15;;;;;;;6.13;83.11;97619.30;1752173;81;28289;-83
2022/01/02 06:42:00;;;;;;;14.15;9.75;;;;;;;6.16;83.17;97609.24;1739132;81;25886;-84
2022/01/02 06:44:27;;;;;;;15.90;10.30;;;;;;;6.16;83.23;97601.20;1737336;81;26318;-82
2022/01/02 06:46:54;;;;;;;14.58;9.55;;;;;;;6.17;83.24;97596.98;1740177;81;26671;-83
2022/01/02 06:49:20;;;;;;;18.35;10.78;;;;;;;6.16;83.22;97579.77;1732993;81;25674;-87
2022/01/02 06:51:47;;;;;;;19.30;11.93;;;;;;;6.16;83.20;97579.77;1733036;81;28277;-82
2022/01/02 06:54:13;;;;;;;16.42;12.18;;;;;;;6.09;83.06;97574.27;1734563;81;25235;-82
2022/01/02 06:56:40;;;;;;;21.80;12.85;;;;;;;6.00;83.04;97573.50;1748342;81;25842;-84
2022/01/02 06:59:07;;;;;;;19.05;12.82;;;;;;;5.98;83.21;97580.88;1723830;81;26035;-82
2022/01/02 07:01:33;;;;;;;19.73;11.50;;;;;;;5.99;83.20;97579.88;1745123;81;25684;-89
2022/01/02 07:04:00;;;;;;;24.43;13.78;;;;;;;5.95;83.05;97585.75;1742320;81;28244;-83
2022/01/02 07:06:27;;;;;;;23.05;13.62;;;;;;;5.90;83.02;97588.98;1747753;81;25720;-85
2022/01/02 07:08:53;;;;;;;23.42;15.30;;;;;;;5.89;83.06;97587.81;1730664;81;25694;-85
2022/01/02 07:11:20;;;;;;;34.45;19.17;;;;;;;5.85;83.02;97595.33;1748409;81;26025;-85
2022/01/02 07:13:46;;;;;;;25.15;17.02;;;;;;;5.85;83.05;97593.99;1746766;81;26540;-88
2022/01/02 07:16:13;;;;;;;33.13;18.17;;;;;;;5.84;83.02;97599.02;1733249;81;26815;-86
2022/01/02 07:18:39;;;;;;;22.13;14.63;;;;;;;5.86;83.10;97593.48;1739018;81;25844;-84
2022/01/02 07:21:06;;;;;;;21.45;14.43;;;;;;;5.86;83.13;97582.27;1746784;80;26461;-87
2022/01/02 07:23:33;;;;;;;16.45;11.88;;;;;;;5.86;83.25;97567.53;1747532;81;26642;-82
2022/01/02 07:25:59;;;;;;;20.12;13.28;;;;;;;5.89;83.39;97567.22;1736063;81;25796;-88
2022/01/02 07:28:26;;;;;;;15.75;10.88;;;;;;;5.94;83.54;97571.52;1737592;81;28185;-84
2022/01/02 07:30:52;;;;;;;13.35;9.10;;;;;;;5.99;83.64;97564.30;1746736;81;25761;-87
2022/01/02 07:33:19;;;;;;;10.72;7.60;;;;;;;6.05;83.68;97560.89;1738053;81;25730;-90
2022/01/02 07:35:46;;;;;;;9.93;7.33;;;;;;;6.09;83.72;97555.00;1742234;81;25921;-87
2022/01/02 07:38:12;;;;;;;9.03;5.75;;;;;;;6.19;83.74;97547.22;1729150;81;25885;-89
2022/01/02 07:40:39;;;;;;;8.68;6.08;;;;;;;6.25;83.75;97543.83;1740046;81;27362;-89
2022/01/02 07:43:05;;;;;;;9.95;6.17;;;;;;;6.33;83.78;97537.05;1734633;81;25734;-83
2022/01/02 07:45:32;;;;;;;8.05;5.55;;;;;;;6.42;83.78;97538.13;1727676;80;26241;-84
2022/01/02 07:47:58;;;;;;;8.58;6.00;;;;;;;6.50;83.76;97525.16;1738648;81;25970;-83
2022/01/02 07:50:25;;;;;;;9.23;6.22;;;;;;;6.60;83.75;97521.70;1744267;81;25891;-84
2022/01/02 07:52:54;;;;;;;8.98;5.92;;;;;;;6.65;83.64;97517.94;1739974;81;28274;-83
2022/01/02 07:55:21;;;;;;;13.25;6.95;;;;;;;6.73;83.60;97518.38;1746152;81;25721;-82
2022/01/02 07:57:48;;;;;;;11.08;5.80;;;;;;;6.79;83.57;97517.13;1740074;81;25808;-83
2022/01/02 08:00:17;;;;;;;6.95;5.00;;;;;;;6.82;83.36;97515.92;1736845;81;26035;-83
2022/01/02 08:02:43;;;;;;;6.75;5.28;;;;;;;6.88;83.31;97503.13;1727186;81;26176;-84
2022/01/02 08:05:14;;;;;;;7.83;5.37;;;;;;;6.98;83.34;97512.23;1739830;81;27392;-87
2022/01/02 08:07:41;;;;;;;8.60;6.80;;;;;;;7.07;83.35;97501.71;1723421;81;25730;-86
2022/01/02 08:10:08;;;;;;;9.78;6.50;;;;;;;7.13;83.24;97502.28;1722959;83;25825;-87
2022/01/02 08:12:35;;;;;;;9.53;6.53;;;;;;;7.19;83.18;97504.23;1722834;83;26871;-88
2022/01/02 08:15:01;;;;;;;11.28;6.72;;;;;;;7.25;83.15;97507.50;1722885;82;25907;-87
2022/01/02 08:17:28;;;;;;;8.48;6.58;;;;;;;7.30;83.07;97496.20;1739456;81;27357;-87
2022/01/02 08:19:54;;;;;;;9.65;6.30;;;;;;;7.36;83.02;97498.98;1731311;81;25813;-86
2022/01/02 08:22:22;;;;;;;10.85;6.40;;;;;;;7.41;82.92;97499.23;1723036;83;25761;-89
2022/01/02 08:24:49;;;;;;;9.33;6.58;;;;;;;7.49;82.85;97493.73;1739477;81;26814;-88
2022/01/02 08:27:16;;;;;;;11.93;6.47;;;;;;;7.54;82.84;97488.64;1722944;83;25710;-88
2022/01/02 08:29:42;;;;;;;7.15;5.60;;;;;;;7.61;82.76;97492.73;1740548;81;27540;-87
2022/01/02 08:32:09;;;;;;;10.20;6.97;;;;;;;7.68;82.66;97488.78;1752740;81;25815;-88
2022/01/02 08:34:36;;;;;;;8.65;5.70;;;;;;;7.77;82.73;97483.59;1741646;80;25732;-88
2022/01/02 08:37:03;;;;;;;7.78;5.17;;;;;;;7.86;82.70;97487.81;1752871;81;25975;-87
2022/01/02 08:39:29;;;;;;;7.90;6.37;;;;;;;7.94;82.43;97482.33;1723721;81;25796;-86
2022/01/02 08:41:57;;;;;;;9.35;6.15;;;;;;;7.99;82.34;97465.09;1722599;83;27670;-87
2022/01/02 08:44:23;;;;;;;6.87;5.50;;;;;;;8.03;82.11;97464.20;1745491;81;25820;-87
2022/01/02 08:46:50;;;;;;;6.22;5.47;;;;;;;8.06;81.97;97465.17;1737228;80;25693;-87
2022/01/02 08:49:18;;;;;;;7.00;5.33;;;;;;;8.11;81.93;97469.43;1749232;81;26001;-86
2022/01/02 08:51:44;;;;;;;7.10;5.33;;;;;;;8.21;81.92;97473.98;1752974;81;25780;-86
2022/01/02 08:54:11;;;;;;;7.22;5.47;;;;;;;8.30;81.77;97462.88;1744386;81;27036;-87
2022/01/02 08:56:38;;;;;;;7.17;5.28;;;;;;;8.39;81.73;97462.76;1722705;83;25761;-88
2022/01/02 08:59:05;;;;;;;7.05;5.25;;;;;;;8.47;81.54;97458.56;1722963;83;25706;-86
2022/01/02 09:01:31;;;;;;;6.03;4.80;;;;;;;8.54;81.44;97452.73;1743960;81;25895;-87
2022/01/02 09:03:58;;;;;;;5.83;4.62;;;;;;;8.59;81.32;97435.46;1752586;81;25751;-87
2022/01/02 09:06:24;;;;;;;8.30;4.80;;;;;;;8.66;81.18;97445.77;1748472;81;27584;-89
2022/01/02 09:08:51;;;;;;;6.85;4.85;;;;;;;8.74;81.03;97437.52;1727924;81;25772;-88
2022/01/02 09:11:17;;;;;;;6.33;5.10;;;;;;;8.83;80.86;97452.47;1722610;82;25710;-89
2022/01/02 09:13:44;;;;;;;8.08;5.08;;;;;;;8.93;80.86;97446.74;1722799;83;25856;-87
2022/01/02 09:16:11;;;;;;;6.47;4.58;;;;;;;8.98;80.57;97444.27;1752515;81;25666;-87
2022/01/02 09:18:37;;;;;;;7.28;4.80;;;;;;;9.03;80.37;97433.73;1730212;80;27362;-88
2022/01/02 09:21:04;;;;;;;6.97;4.67;;;;;;;9.09;80.25;97430.23;1722626;83;26338;-90
2022/01/02 09:23:30;;;;;;;7.60;4.80;;;;;;;9.15;80.04;97425.91;1736109;81;25751;-88
2022/01/02 09:25:57;;;;;;;6.30;4.80;;;;;;;9.20;79.94;97420.22;1737061;81;25805;-88
2022/01/02 09:28:24;;;;;;;5.10;4.12;;;;;;;9.31;79.81;97414.75;1738380;80;25723;-87
2022/01/02 09:30:50;;;;;;;6.30;4.83;;;;;;;9.45;79.68;97402.98;1729007;81;27941;-88
2022/01/02 09:33:17;;;;;;;7.47;5.25;;;;;;;9.68;79.34;97393.16;1739306;81;25702;-88
2022/01/02 09:35:44;;;;;;;6.58;4.83;;;;;;;9.87;79.05;97382.93;1747083;81;25849;-87
2022/01/02 09:38:10;;;;;;;6.90;4.33;;;;;;;10.14;78.97;97390.50;1764950;81;26450;-87
2022/01/02 09:40:37;;;;;;;7.03;4.72;;;;;;;10.30;78.50;97384.68;1748521;81;25910;-88
2022/01/02 09:43:05;;;;;;;5.35;4.53;;;;;;;10.48;78.42;97370.55;1739391;81;27404;-88
2022/01/02 09:45:38;;;;;;;5.12;3.92;;;;;;;10.66;78.08;97367.98;1722978;83;25690;-88
2022/01/02 09:48:05;;;;;;;8.55;4.08;;;;;;;10.89;77.90;97362.08;1722847;82;25785;-86
2022/01/02 09:50:32;;;;;;;6.12;3.92;;;;;;;11.12;77.32;97357.50;1734833;81;26059;-87
2022/01/02 09:52:59;;;;;;;5.12;3.92;;;;;;;11.30;77.01;97343.28;1753101;81;25685;-87
2022/01/02 09:55:26;;;;;;;4.72;3.30;;;;;;;11.54;77.01;97346.03;1752873;81;28158;-87
2022/01/02 09:57:54;;;;;;;4.22;3.15;;;;;;;11.74;77.19;97327.46;1724130;81;25686;-87
2022/01/02 10:00:20;;;;;;;8.20;3.65;;;;;;;11.92;76.25;97317.27;1722522;82;25852;-87
2022/01/02 10:03:03;;;;;;;5.15;2.83;;;;;;;12.21;76.05;97308.44;1722793;82;25977;-88
2022/01/02 10:05:59;;;;;;;4.78;2.87;;;;;;;12.46;75.49;97308.38;1722863;82;25776;-87
2022/01/02 10:08:35;;;;;;;4.20;2.92;;;;;;;12.62;75.09;97305.91;1722378;83;46515;-89
2022/01/02 10:11:21;;;;;;;3.90;2.70;;;;;;;12.62;74.74;97301.84;1722288;82;25691;-88
2022/01/02 10:13:56;;;;;;;3.45;2.52;;;;;;;12.61;74.01;97296.13;1722576;82;25751;-86
2022/01/02 10:16:42;;;;;;;5.75;3.15;;;;;;;12.69;74.19;97298.20;1722981;83;25985;-88
2022/01/02 10:19:36;;;;;;;3.15;2.52;;;;;;;12.91;73.46;97292.64;1723178;82;25734;-87
2022/01/02 10:22:05;;;;;;;4.58;2.90;;;;;;;13.12;73.27;97290.77;1722134;82;27495;-88
2022/01/02 10:24:38;;;;;;;6.37;3.25;;;;;;;13.43;73.58;97283.45;1723089;82;25842;-86
2022/01/02 10:27:08;;;;;;;;;;;;;;;13.55;72.35;97287.84;1725731;82;25713;-88
2022/01/02 10:29:51;;;;;;;4.67;3.33;;;;;;;13.62;71.80;97287.23;1723172;83;26539;-87
2022/01/02 10:32:39;;;;;;;4.62;3.17;;;;;;;13.62;71.87;97279.09;1722843;83;25776;-88
2022/01/02 10:35:14;;;;;;;4.12;2.40;;;;;;;13.68;71.86;97280.86;1722899;83;28081;-89
2022/01/02 10:37:53;;;;;;;3.47;2.58;;;;;;;13.76;71.21;97276.16;1723021;83;25445;-90
2022/01/02 10:40:41;;;;;;;3.47;2.20;;;;;;;13.82;70.83;97270.61;1723130;83;25753;-88
2022/01/02 10:43:13;;;;;;;5.62;2.33;;;;;;;13.96;70.43;97265.78;1723066;82;25959;-88
2022/01/02 10:45:47;;;;;;;4.65;2.80;;;;;;;14.10;69.63;97263.66;1722337;82;25793;-89
2022/01/02 10:48:15;;;;;;;4.95;2.20;;;;;;;14.41;69.54;97266.00;1722998;82;27317;-88
2022/01/02 10:51:16;;;;;;;4.22;2.52;;;;;;;14.76;69.12;97263.20;1722826;82;26382;-88
2022/01/02 10:53:56;;;;;;;2.52;1.80;;;;;;;15.07;68.81;97255.94;1722959;83;25812;-90
2022/01/02 10:56:26;;;;;;;3.80;2.30;;;;;;;15.10;67.77;97245.09;1722751;83;26046;-87
2022/01/02 10:58:53;;;;;;;3.17;2.40;;;;;;;15.06;67.46;97256.19;1723201;83;25654;-90
2022/01/02 11:01:21;;;;;;;2.70;2.40;;;;;;;14.98;67.53;97256.02;1737098;81;27481;-88
2022/01/02 11:03:49;;;;;;;4.10;2.58;;;;;;;14.81;66.45;97248.89;1752281;80;25839;-86
2022/01/02 11:06:24;;;;;;;3.35;2.10;;;;;;;14.70;66.38;97243.27;1747441;81;25847;-90
2022/01/02 11:08:52;;;;;;;3.47;2.15;;;;;;;14.74;66.75;97236.27;1722135;82;26028;-87
2022/01/02 11:11:21;;;;;;;4.10;2.30;;;;;;;14.87;66.29;97235.69;1722469;82;25842;-88
2022/01/02 11:13:50;;;;;;;4.00;2.47;;;;;;;14.84;65.53;97218.00;1722267;81;27231;-90
2022/01/02 11:16:18;;;;;;;3.30;2.42;;;;;;;14.92;65.25;97229.00;1722259;83;25304;-87
2022/01/02 11:18:47;;;;;;;5.95;2.62;;;;;;;14.97;65.70;97227.19;1737317;81;25712;-86
2022/01/02 11:21:15;;;;;;;3.25;2.40;;;;;;;14.83;64.93;97223.14;1747783;81;26173;-86
2022/01/02 11:24:00;;;;;;;3.98;2.87;;;;;;;14.82;65.00;97218.77;1742955;81;26088;-88
2022/01/02 11:26:53;;;;;;;5.50;3.40;;;;;;;14.86;64.71;97219.08;1722362;82;27362;-88
2022/01/02 11:29:27;;;;;;;6.78;4.05;;;;;;;14.68;64.69;97210.08;1722118;82;25719;-89
2022/01/02 11:31:55;;;;;;;4.17;2.87;;;;;;;14.56;64.61;97209.30;1722360;83;25759;-89
2022/01/02 11:34:28;;;;;;;5.03;2.85;;;;;;;14.45;64.71;97210.16;1722323;83;26666;-88
2022/01/02 11:37:22;;;;;;;4.72;2.62;;;;;;;14.41;64.55;97215.23;1722523;82;25735;-90
2022/01/02 11:39:59;;;;;;;5.92;2.27;;;;;;;14.29;64.71;97206.79;1722651;82;27387;-88
2022/01/02 11:42:42;;;;;;;3.37;2.40;;;;;;;14.18;64.65;97204.39;1722071;83;25228;-90
2022/01/02 11:45:27;;;;;;;;;;;;;;;14.03;64.46;97199.98;1725063;82;25851;-89
2022/01/02 11:47:54;;;;;;;5.17;3.00;;;;;;;13.92;64.01;97190.80;1722540;83;26887;-89
2022/01/02 11:50:36;;;;;;;3.98;2.75;;;;;;;13.75;64.17;97186.34;1722520;83;25731;-89